Time;durP1;ratioP1;P1;durP2;ratioP2;P2;SDS_P1;SDS_P2;PMS_P1;PMS_P2;Temp;Humidity;BMP_temperature;BMP_pressure;BME280_temperature;BME280_humidity;BME280_pressure;Samples;Min_cycle;Max_cycle;Signal;HPM_P1;HPM_P2
2023/04/04 00:01:03;;;;;;;9.10;8.90;;;0.40;99.90;;;;;;5006930;28;20320;-83
2023/04/04 00:03:32;;;;;;;9.40;9.10;;;0.50;99.90;;;;;;5007739;28;20252;-82
2023/04/04 00:06:04;;;;;;;8.97;8.77;;;0.50;99.90;;;;;;5006754;28;20550;-82
2023/04/04 00:08:31;;;;;;;9.60;9.30;;;0.60;99.90;;;;;;5006892;28;20233;-83
2023/04/04 00:11:01;;;;;;;9.10;8.90;;;0.70;99.90;;;;;;5007951;28;20267;-83
2023/04/04 00:13:30;;;;;;;9.00;8.80;;;0.70;99.90;;;;;;5008662;28;20277;-83
2023/04/04 00:15:59;;;;;;;9.30;9.00;;;0.70;99.90;;;;;;5008272;28;20244;-82
2023/04/04 00:18:29;;;;;;;9.03;8.83;;;0.80;99.90;;;;;;5008087;28;20248;-83
2023/04/04 00:20:57;;;;;;;9.20;8.90;;;0.90;99.90;;;;;;5010332;28;20233;-83
2023/04/04 00:23:37;;;;;;;9.17;8.90;;;0.90;99.90;;;;;;5010091;28;20227;-83
2023/04/04 00:26:05;;;;;;;8.80;8.60;;;0.90;99.90;;;;;;5008537;28;20360;-83
2023/04/04 00:28:37;;;;;;;9.20;8.90;;;0.90;99.90;;;;;;5011472;28;20228;-83
2023/04/04 00:31:05;;;;;;;8.77;8.57;;;0.90;99.90;;;;;;5013168;28;20245;-83
2023/04/04 00:33:34;;;;;;;9.50;9.20;;;1.00;99.90;;;;;;5014341;28;20209;-82
2023/04/04 00:36:02;;;;;;;9.47;9.17;;;1.00;99.90;;;;;;5013963;28;20304;-80
2023/04/04 00:38:51;;;;;;;9.23;8.93;;;1.00;99.90;;;;;;5020100;28;20341;-82
2023/04/04 00:41:20;;;;;;;9.40;9.10;;;1.10;99.90;;;;;;5021953;28;20229;-80
2023/04/04 00:43:48;;;;;;;9.40;9.10;;;1.20;99.90;;;;;;5021834;28;20231;-80
2023/04/04 00:46:22;;;;;;;9.33;9.03;;;1.20;99.90;;;;;;5021994;28;20237;-81
2023/04/04 00:48:51;;;;;;;8.93;8.73;;;1.20;99.90;;;;;;5021861;28;20227;-81
2023/04/04 00:51:18;;;;;;;8.90;8.70;;;1.20;99.90;;;;;;5021796;28;20236;-81
2023/04/04 00:53:51;;;;;;;9.03;8.83;;;1.30;99.90;;;;;;5021212;28;20219;-82
2023/04/04 00:56:19;;;;;;;9.30;9.00;;;1.30;99.90;;;;;;5022111;28;20232;-80
2023/04/04 00:58:47;;;;;;;9.50;9.20;;;1.30;99.90;;;;;;5020484;28;20258;-83
2023/04/04 01:01:15;;;;;;;9.40;9.10;;;1.40;99.90;;;;;;5018973;28;20239;-82
2023/04/04 01:03:45;;;;;;;9.50;9.20;;;1.30;99.90;;;;;;5021229;28;20201;-82
2023/04/04 01:06:15;;;;;;;9.60;9.30;;;1.40;99.90;;;;;;5021451;28;20243;-82
2023/04/04 01:08:45;;;;;;;9.40;9.10;;;1.50;99.90;;;;;;5021271;28;20240;-81
2023/04/04 01:11:16;;;;;;;9.27;8.97;;;1.50;99.90;;;;;;5021368;28;20236;-81
2023/04/04 01:13:45;;;;;;;9.23;8.93;;;1.50;99.90;;;;;;5021581;28;20224;-81
2023/04/04 01:16:12;;;;;;;9.40;9.10;;;1.50;99.90;;;;;;5021349;28;20253;-81
2023/04/04 01:18:42;;;;;;;9.40;9.10;;;1.50;99.90;;;;;;5020995;28;20229;-82
2023/04/04 01:21:15;;;;;;;9.50;9.20;;;1.60;99.90;;;;;;5021211;28;20260;-81
2023/04/04 01:23:59;;;;;;;9.40;9.10;;;1.50;99.90;;;;;;5021561;28;20215;-81
2023/04/04 01:26:31;;;;;;;9.63;9.33;;;1.50;99.90;;;;;;5020711;28;20221;-81
2023/04/04 01:28:59;;;;;;;9.40;9.10;;;1.50;99.90;;;;;;5021142;28;20227;-80
2023/04/04 01:31:35;;;;;;;9.50;9.20;;;1.50;99.90;;;;;;5019697;28;20221;-81
2023/04/04 01:34:14;;;;;;;9.40;9.10;;;1.50;99.90;;;;;;5012781;28;20325;-82
2023/04/04 01:36:52;;;;;;;8.97;8.77;;;1.40;99.90;;;;;;5004775;28;20251;-82
2023/04/04 01:39:27;;;;;;;9.20;8.90;;;1.40;99.90;;;;;;5004389;28;20241;-83
2023/04/04 01:42:01;;;;;;;9.27;8.97;;;1.40;99.90;;;;;;5004754;28;20263;-82
2023/04/04 01:44:29;;;;;;;9.80;9.50;;;1.30;99.90;;;;;;5004712;28;20229;-82
2023/04/04 01:46:58;;;;;;;9.47;9.17;;;1.20;99.90;;;;;;4996151;28;20269;-82
2023/04/04 01:49:29;;;;;;;9.20;8.90;;;1.20;99.90;;;;;;5003610;28;20249;-82
2023/04/04 01:51:57;;;;;;;9.70;9.40;;;1.10;99.90;;;;;;5004439;28;20323;-82
2023/04/04 01:54:32;;;;;;;9.70;9.40;;;1.10;99.90;;;;;;5004768;28;20225;-82
2023/04/04 01:57:10;;;;;;;9.60;9.30;;;1.00;99.90;;;;;;5004514;28;20264;-82
2023/04/04 01:59:38;;;;;;;9.57;9.27;;;1.00;99.90;;;;;;5004472;28;20256;-82
2023/04/04 02:02:05;;;;;;;9.30;9.00;;;0.90;99.90;;;;;;5004568;28;20241;-82
2023/04/04 02:04:33;;;;;;;9.50;9.20;;;0.90;99.90;;;;;;5004723;28;20235;-82
2023/04/04 02:07:07;;;;;;;9.50;9.20;;;0.90;99.90;;;;;;5003507;28;20240;-83
2023/04/04 02:09:34;;;;;;;9.70;9.40;;;0.90;99.90;;;;;;5004095;28;20233;-83
2023/04/04 02:12:03;;;;;;;9.60;9.30;;;1.00;99.90;;;;;;5004276;28;20319;-82
2023/04/04 02:14:36;;;;;;;9.67;9.37;;;1.00;99.90;;;;;;5004919;28;20221;-82
2023/04/04 02:17:04;;;;;;;9.70;9.40;;;1.00;99.90;;;;;;5007172;28;20292;-83
2023/04/04 02:19:32;;;;;;;9.70;9.40;;;0.90;99.90;;;;;;5007523;28;20324;-82
2023/04/04 02:22:00;;;;;;;9.23;8.93;;;0.90;99.90;;;;;;5007153;28;20271;-81
2023/04/04 02:24:28;;;;;;;8.80;8.60;;;0.90;99.90;;;;;;5006329;28;20229;-81
2023/04/04 02:27:00;;;;;;;8.60;8.40;;;0.90;99.90;;;;;;4995090;28;20418;-81
2023/04/04 02:29:30;;;;;;;9.40;9.10;;;0.90;99.90;;;;;;4996478;28;20233;-81
2023/04/04 02:32:01;;;;;;;9.40;9.10;;;0.80;99.90;;;;;;4999250;28;20217;-81
2023/04/04 02:34:29;;;;;;;9.40;9.10;;;0.70;99.90;;;;;;4994842;28;21027;-81
2023/04/04 02:36:57;;;;;;;9.27;8.97;;;0.70;99.90;;;;;;4989774;28;20320;-81
2023/04/04 02:39:28;;;;;;;9.40;9.10;;;0.60;99.90;;;;;;4988654;28;20233;-82
2023/04/04 02:41:56;;;;;;;8.90;8.70;;;0.60;99.90;;;;;;4987910;28;20293;-84
2023/04/04 02:44:26;;;;;;;9.30;9.00;;;0.60;99.90;;;;;;4988319;28;20217;-82
2023/04/04 02:46:56;;;;;;;9.03;8.83;;;0.60;99.90;;;;;;4986647;28;20248;-82
2023/04/04 02:49:28;;;;;;;9.20;8.90;;;0.60;99.90;;;;;;4986218;28;20237;-82
2023/04/04 02:51:55;;;;;;;9.20;8.90;;;0.50;99.90;;;;;;4983961;28;20304;-82
2023/04/04 02:54:24;;;;;;;9.33;9.03;;;0.40;99.90;;;;;;4985490;28;20242;-82
2023/04/04 02:56:54;;;;;;;9.20;8.90;;;0.40;99.90;;;;;;4985119;28;20313;-82
2023/04/04 02:59:24;;;;;;;9.20;8.90;;;0.40;99.90;;;;;;4984681;28;20237;-82
2023/04/04 03:01:52;;;;;;;9.20;8.90;;;0.40;99.90;;;;;;4985447;28;20277;-82
2023/04/04 03:04:21;;;;;;;9.70;9.40;;;0.40;99.90;;;;;;4985251;28;20288;-83
2023/04/04 03:06:52;;;;;;;9.23;8.93;;;0.40;99.90;;;;;;4995030;28;20237;-81
2023/04/04 03:09:21;;;;;;;9.00;8.73;;;0.40;99.90;;;;;;4999705;28;20237;-81
2023/04/04 03:11:50;;;;;;;9.33;9.03;;;0.30;99.90;;;;;;4985357;28;20320;-82
2023/04/04 03:14:19;;;;;;;9.43;9.13;;;0.20;99.90;;;;;;4982813;28;20239;-82
2023/04/04 03:16:49;;;;;;;9.27;8.97;;;0.30;99.90;;;;;;4982365;28;20237;-83
2023/04/04 03:19:18;;;;;;;9.30;9.00;;;0.30;99.90;;;;;;4982584;28;20296;-82
2023/04/04 03:21:48;;;;;;;9.30;9.00;;;0.30;99.90;;;;;;4983366;28;20235;-82
2023/04/04 03:24:20;;;;;;;9.30;9.00;;;0.20;99.90;;;;;;4986177;28;20217;-82
2023/04/04 03:26:47;;;;;;;8.83;8.63;;;0.10;99.90;;;;;;4987470;28;20301;-82
2023/04/04 03:29:16;;;;;;;8.80;8.60;;;0.00;99.90;;;;;;4988167;28;20241;-82
2023/04/04 03:31:46;;;;;;;8.60;8.40;;;0.10;99.90;;;;;;4991356;28;20257;-83
2023/04/04 03:34:15;;;;;;;8.70;8.50;;;0.10;99.90;;;;;;4988646;28;20222;-82
2023/04/04 03:36:45;;;;;;;8.60;8.40;;;0.20;99.90;;;;;;4986527;28;20249;-82
2023/04/04 03:39:14;;;;;;;8.60;8.40;;;0.20;99.90;;;;;;4985898;28;20305;-83
2023/04/04 03:41:51;;;;;;;8.60;8.40;;;0.10;99.90;;;;;;4985715;28;20299;-83
2023/04/04 03:44:22;;;;;;;9.20;8.90;;;0.00;99.90;;;;;;4985194;28;20252;-82
2023/04/04 03:46:51;;;;;;;9.43;9.13;;;0.00;99.90;;;;;;4988418;28;20272;-82
2023/04/04 03:49:20;;;;;;;9.40;9.10;;;0.00;99.90;;;;;;4989190;28;20328;-82
2023/04/04 03:51:49;;;;;;;9.47;9.17;;;0.00;99.90;;;;;;4987254;28;20236;-83
2023/04/04 03:54:22;;;;;;;9.63;9.33;;;-0.10;99.90;;;;;;4986501;28;20239;-83
2023/04/04 03:56:53;;;;;;;9.57;9.27;;;-0.10;99.90;;;;;;4985104;28;20242;-83
2023/04/04 03:59:21;;;;;;;9.60;9.30;;;-0.10;99.90;;;;;;4985348;28;20277;-82
2023/04/04 04:01:49;;;;;;;9.60;9.30;;;-0.10;99.90;;;;;;4985387;28;20315;-82
2023/04/04 04:04:19;;;;;;;9.80;9.50;;;-0.10;99.90;;;;;;4989234;28;20233;-83
2023/04/04 04:06:48;;;;;;;9.50;9.20;;;-0.10;99.90;;;;;;4989658;28;20240;-82
2023/04/04 04:09:17;;;;;;;9.40;9.10;;;-0.20;99.90;;;;;;4989901;28;20264;-82
2023/04/04 04:11:47;;;;;;;9.60;9.30;;;-0.30;99.90;;;;;;4988703;28;20243;-82
2023/04/04 04:14:19;;;;;;;9.90;9.60;;;-0.40;99.90;;;;;;4990704;28;20289;-82
2023/04/04 04:16:47;;;;;;;9.37;9.07;;;-0.40;99.90;;;;;;4992267;28;20261;-81
2023/04/04 04:19:16;;;;;;;9.33;9.03;;;-0.40;99.90;;;;;;4992905;28;20253;-83
2023/04/04 04:21:44;;;;;;;9.53;9.23;;;-0.40;99.90;;;;;;4988285;28;20290;-82
2023/04/04 04:24:13;;;;;;;9.67;9.37;;;-0.50;99.90;;;;;;4994358;28;20216;-82
2023/04/04 04:26:42;;;;;;;10.67;10.37;;;-0.40;99.90;;;;;;4998417;28;20878;-82
2023/04/04 04:29:15;;;;;;;10.67;10.37;;;-0.40;99.90;;;;;;4996478;28;20315;-82
2023/04/04 04:31:45;;;;;;;10.77;10.47;;;-0.40;99.90;;;;;;4992032;28;20265;-82
2023/04/04 04:34:13;;;;;;;10.50;10.20;;;-0.40;99.90;;;;;;4991783;28;20253;-82
2023/04/04 04:36:41;;;;;;;10.60;10.30;;;-0.40;99.90;;;;;;4992775;28;20238;-82
2023/04/04 04:39:22;;;;;;;10.50;10.20;;;-0.50;99.90;;;;;;5026566;22;20302;-79
2023/04/04 04:41:53;;;;;;;10.93;10.63;;;-0.50;99.90;;;;;;5049176;28;20234;-79
2023/04/04 04:44:56;;;;;;;10.30;10.00;;;-0.50;99.90;;;;;;5036141;28;20227;-80
2023/04/04 04:47:43;;;;;;;10.53;10.23;;;-0.50;99.90;;;;;;5026911;28;20712;-80
2023/04/04 04:53:17;;;;;;;10.30;10.00;;;-0.50;99.90;;;;;;5005177;28;20327;-80
2023/04/04 04:55:56;;;;;;;10.30;10.00;;;-0.50;99.90;;;;;;5004879;28;20981;-80
2023/04/04 05:01:12;;;;;;;10.70;10.40;;;-0.60;99.90;;;;;;5003230;28;20225;-80
2023/04/04 05:03:53;;;;;;;10.70;10.40;;;-0.70;99.90;;;;;;5004685;28;20228;-80
2023/04/04 05:09:07;;;;;;;10.30;10.00;;;-0.70;99.90;;;;;;5003927;28;20259;-80
2023/04/04 05:11:43;;;;;;;10.33;10.03;;;-0.70;99.90;;;;;;5004560;28;20236;-80
2023/04/04 05:17:02;;;;;;;10.27;9.97;;;-0.60;99.90;;;;;;5005586;28;20369;-80
2023/04/04 05:22:18;;;;;;;10.40;10.10;;;-0.60;99.90;;;;;;5004670;28;20239;-80
2023/04/04 05:25:14;;;;;;;10.33;10.03;;;-0.50;99.90;;;;;;5010125;28;20236;-80
2023/04/04 05:28:05;;;;;;;10.47;10.17;;;-0.50;99.90;;;;;;5019445;28;20208;-80
2023/04/04 05:30:49;;;;;;;10.07;9.77;;;-0.40;99.90;;;;;;5002061;28;20341;-81
2023/04/04 05:33:26;;;;;;;10.20;9.90;;;-0.30;99.90;;;;;;5004951;28;20227;-81
2023/04/04 05:36:03;;;;;;;10.10;9.80;;;-0.30;99.90;;;;;;5004027;28;20229;-81
2023/04/04 05:38:42;;;;;;;10.07;9.77;;;-0.40;99.90;;;;;;5003707;28;20237;-81
2023/04/04 05:41:21;;;;;;;10.00;9.70;;;-0.40;99.90;;;;;;5003104;28;20237;-80
2023/04/04 05:44:19;;;;;;;9.90;9.60;;;-0.40;99.90;;;;;;5004594;28;20256;-80
2023/04/04 05:47:18;;;;;;;9.90;9.60;;;-0.30;99.90;;;;;;5004947;28;20255;-80
2023/04/04 05:53:14;;;;;;;9.63;9.33;;;-0.10;99.90;;;;;;5006367;28;20216;-81
2023/04/04 05:56:15;;;;;;;9.97;9.67;;;0.00;99.90;;;;;;5005431;28;20236;-81
2023/04/04 06:02:29;;;;;;;10.13;9.83;;;0.10;99.90;;;;;;5016879;28;20236;-81
2023/04/04 06:18:41;;;;;;;10.00;9.70;;;0.30;99.90;;;;;;5032986;28;20224;-81
2023/04/04 06:25:04;;;;;;;9.70;9.40;;;0.50;99.90;;;;;;5015179;28;20231;-82
2023/04/04 06:31:14;;;;;;;10.00;9.70;;;0.60;99.90;;;;;;5036584;28;20232;-81
2023/04/04 06:38:33;;;;;;;9.90;9.60;;;0.90;99.90;;;;;;4981643;28;20253;-81
2023/04/04 06:49:21;;;;;;;10.60;10.30;;;1.30;99.90;;;;;;4960503;28;20236;-85
2023/04/04 06:51:58;;;;;;;10.00;9.70;;;1.40;99.90;;;;;;5023291;28;20255;-86
2023/04/04 06:54:28;;;;;;;10.20;9.90;;;1.50;99.90;;;;;;5024090;28;20315;-87
2023/04/04 06:56:56;;;;;;;10.00;9.70;;;1.60;99.90;;;;;;5023000;28;20388;-88
2023/04/04 06:59:36;;;;;;;9.90;9.60;;;1.70;99.90;;;;;;5025893;28;20228;-87
2023/04/04 07:02:04;;;;;;;10.13;9.83;;;1.80;99.90;;;;;;5025266;28;20232;-87
2023/04/04 07:07:20;;;;;;;10.00;9.70;;;2.00;99.90;;;;;;5026944;28;20232;-86
2023/04/04 07:09:50;;;;;;;10.40;10.10;;;2.00;99.90;;;;;;5024293;28;20236;-86
2023/04/04 07:12:19;;;;;;;10.30;10.00;;;2.00;99.90;;;;;;5023397;28;20228;-85
2023/04/04 07:14:48;;;;;;;10.10;9.80;;;2.10;99.90;;;;;;5023332;28;20237;-87
2023/04/04 07:17:18;;;;;;;10.20;9.90;;;2.20;99.90;;;;;;5022622;28;20227;-87
2023/04/04 07:19:50;;;;;;;9.90;9.60;;;2.40;99.90;;;;;;5024102;28;20232;-86
2023/04/04 07:22:28;;;;;;;9.97;9.67;;;2.50;99.90;;;;;;5029583;28;20268;-87
2023/04/04 07:24:58;;;;;;;10.17;9.87;;;2.60;99.90;;;;;;5032564;28;20216;-85
2023/04/04 07:27:26;;;;;;;10.30;10.00;;;2.80;99.90;;;;;;5029852;28;20236;-86
2023/04/04 07:29:54;;;;;;;10.27;9.97;;;2.80;99.90;;;;;;5024509;28;20276;-86
2023/04/04 07:32:23;;;;;;;10.50;10.20;;;2.90;99.90;;;;;;5023650;28;20244;-86
2023/04/04 07:37:40;;;;;;;10.50;10.20;;;3.00;99.90;;;;;;5027745;28;20240;-86
2023/04/04 07:40:11;;;;;;;10.40;10.10;;;3.00;99.90;;;;;;5029078;28;20239;-86
2023/04/04 07:42:49;;;;;;;10.30;10.00;;;3.10;99.90;;;;;;5028921;28;20228;-86
2023/04/04 07:45:17;;;;;;;10.30;10.00;;;3.20;99.90;;;;;;5028320;28;20208;-85
2023/04/04 07:47:48;;;;;;;10.20;9.90;;;3.40;99.90;;;;;;5027178;28;20231;-86
2023/04/04 07:50:25;;;;;;;10.07;9.77;;;3.50;99.90;;;;;;5027486;28;20236;-85
2023/04/04 07:55:34;;;;;;;9.93;9.63;;;3.60;99.90;;;;;;5026667;28;20255;-86
2023/04/04 07:58:04;;;;;;;10.10;9.80;;;3.60;99.90;;;;;;5027319;28;20244;-87
2023/04/04 08:00:33;;;;;;;9.83;9.53;;;3.70;99.90;;;;;;5027269;28;20236;-86
2023/04/04 08:03:03;;;;;;;9.90;9.60;;;3.80;99.90;;;;;;5027124;28;20239;-87
2023/04/04 08:05:41;;;;;;;9.80;9.50;;;3.90;99.90;;;;;;5025511;28;20247;-87
2023/04/04 08:08:37;;;;;;;9.60;9.30;;;3.80;99.90;;;;;;5025643;28;20236;-85
2023/04/04 08:11:09;;;;;;;9.70;9.40;;;3.80;99.90;;;;;;5006545;28;20233;-88
2023/04/04 08:13:44;;;;;;;9.90;9.60;;;3.60;99.90;;;;;;5004520;28;20295;-87
2023/04/04 08:17:11;;;;;;;9.77;9.47;;;3.90;99.90;;;;;;5005373;28;20235;-86
2023/04/04 08:19:50;;;;;;;9.87;9.57;;;4.20;99.90;;;;;;5004655;28;20327;-86
2023/04/04 08:22:25;;;;;;;10.00;9.70;;;4.20;99.90;;;;;;5005860;28;20311;-84
2023/04/04 08:24:54;;;;;;;9.80;9.50;;;4.40;99.90;;;;;;5020951;28;20226;-85
2023/04/04 08:27:32;;;;;;;9.90;9.60;;;4.60;99.90;;;;;;5025449;28;20251;-84
2023/04/04 08:35:10;;;;;;;10.17;9.87;;;4.40;99.90;;;;;;5002013;28;20229;-85
2023/04/04 08:37:47;;;;;;;10.10;9.80;;;4.30;99.90;;;;;;5003422;28;20294;-84
2023/04/04 08:44:06;;;;;;;9.43;9.13;;;4.40;99.90;;;;;;5026948;28;20291;-83
2023/04/04 08:49:29;;;;;;;9.90;9.60;;;4.80;99.90;;;;;;5028478;28;20232;-83
2023/04/04 08:52:18;;;;;;;9.77;9.47;;;5.70;99.90;;;;;;5028756;28;20236;-82
2023/04/04 08:54:55;;;;;;;10.07;9.77;;;6.00;99.90;;;;;;5029439;28;20229;-86
2023/04/04 08:57:33;;;;;;;10.10;9.80;;;6.30;99.90;;;;;;5027109;28;20238;-86
2023/04/04 09:54:33;;;;;;;10.10;9.80;;;5.10;99.90;;;;;;4714286;30;20239;-91
2023/04/04 10:44:24;;;;;;;10.70;10.40;;;9.10;99.90;;;;;;5024702;28;20287;-83
2023/04/04 10:46:54;;;;;;;10.50;10.20;;;8.80;99.90;;;;;;5025398;28;20224;-84
2023/04/04 10:49:22;;;;;;;10.80;10.50;;;8.30;99.90;;;;;;5025409;28;20234;-84
2023/04/04 10:52:18;;;;;;;11.00;10.70;;;8.00;99.90;;;;;;5024669;28;20227;-86
2023/04/04 10:55:01;;;;;;;10.43;10.13;;;8.00;99.90;;;;;;5017048;28;20271;-86
2023/04/04 10:57:33;;;;;;;10.30;10.00;;;7.80;99.90;;;;;;5025600;28;20240;-81
2023/04/04 11:00:10;;;;;;;10.20;9.90;;;7.70;99.90;;;;;;5024808;28;20255;-80
2023/04/04 11:02:50;;;;;;;10.80;10.50;;;7.60;99.90;;;;;;5024193;28;20228;-81
2023/04/04 11:05:28;;;;;;;10.70;10.40;;;7.50;99.90;;;;;;5025605;28;20228;-81
2023/04/04 11:07:59;;;;;;;11.10;10.80;;;8.00;99.90;;;;;;5024836;28;20305;-81
2023/04/04 11:10:30;;;;;;;10.93;10.63;;;8.50;99.90;;;;;;5024777;28;20540;-83
2023/04/04 11:13:06;;;;;;;10.90;10.60;;;8.90;99.90;;;;;;5024912;28;20232;-80
2023/04/04 11:15:54;;;;;;;11.00;10.70;;;9.30;99.90;;;;;;5026442;28;20231;-81
2023/04/04 11:18:23;;;;;;;10.70;10.40;;;9.00;99.90;;;;;;5026047;28;20300;-81
2023/04/04 11:20:52;;;;;;;10.37;10.07;;;9.10;99.90;;;;;;5022553;28;20240;-81
2023/04/04 11:24:15;;;;;;;10.30;10.00;;;9.20;99.90;;;;;;5023068;28;20231;-81
2023/04/04 11:27:02;;;;;;;10.23;9.93;;;9.50;99.90;;;;;;5023669;28;20232;-82
2023/04/04 11:32:43;;;;;;;10.00;9.70;;;9.90;99.90;;;;;;5031549;28;20236;-82
2023/04/04 11:35:13;;;;;;;10.00;9.70;;;10.30;99.90;;;;;;5024594;28;20227;-83
2023/04/04 11:38:01;;;;;;;10.23;9.93;;;10.30;99.90;;;;;;5026849;28;20234;-82
2023/04/04 11:40:41;;;;;;;9.93;9.63;;;9.80;99.90;;;;;;5027608;28;20247;-82
2023/04/04 11:43:11;;;;;;;10.03;9.73;;;9.60;99.90;;;;;;5026242;28;20240;-83
2023/04/04 11:45:46;;;;;;;10.10;9.80;;;9.70;99.90;;;;;;5026243;28;20232;-82
2023/04/04 11:48:25;;;;;;;10.00;9.70;;;10.00;99.90;;;;;;5026089;28;20221;-82
2023/04/04 11:50:54;;;;;;;9.83;9.53;;;10.10;99.90;;;;;;5026201;28;20235;-83
2023/04/04 11:53:26;;;;;;;10.07;9.77;;;10.20;99.90;;;;;;5027272;28;20298;-82
2023/04/04 11:55:55;;;;;;;10.30;10.00;;;10.50;99.90;;;;;;5027022;28;20240;-82
2023/04/04 11:58:24;;;;;;;10.10;9.80;;;10.70;99.90;;;;;;5027796;28;20236;-82
2023/04/04 12:00:53;;;;;;;10.00;9.70;;;10.30;99.90;;;;;;5028501;28;20236;-80
2023/04/04 12:03:25;;;;;;;10.30;10.00;;;10.30;99.90;;;;;;5030487;28;20252;-81
2023/04/04 12:05:52;;;;;;;9.97;9.67;;;11.10;99.90;;;;;;5030308;28;20272;-81
2023/04/04 12:08:22;;;;;;;10.27;9.97;;;11.70;99.90;;;;;;5030185;28;20263;-81
2023/04/04 12:10:52;;;;;;;10.40;10.10;;;11.90;99.90;;;;;;5032105;28;20231;-81
2023/04/04 12:13:19;;;;;;;9.90;9.60;;;11.90;99.90;;;;;;5030851;28;20288;-82
2023/04/04 12:15:50;;;;;;;10.30;10.00;;;11.60;99.90;;;;;;5032320;28;20288;-82
2023/04/04 12:18:28;;;;;;;10.20;9.90;;;11.70;99.90;;;;;;5033394;28;20263;-81
2023/04/04 12:20:59;;;;;;;10.47;10.17;;;11.60;99.90;;;;;;5033573;28;20251;-82
2023/04/04 12:23:27;;;;;;;10.53;10.23;;;12.00;99.90;;;;;;5036960;28;20251;-82
2023/04/04 12:25:57;;;;;;;10.47;10.17;;;11.80;99.90;;;;;;5041104;28;20240;-81
2023/04/04 12:28:26;;;;;;;10.20;9.90;;;12.10;99.90;;;;;;5041525;28;20213;-82
2023/04/04 12:30:55;;;;;;;10.50;10.20;;;11.80;99.90;;;;;;5041819;28;20287;-82
2023/04/04 12:33:28;;;;;;;10.10;9.80;;;11.50;99.90;;;;;;5041872;28;20231;-82
2023/04/04 12:35:56;;;;;;;10.40;10.10;;;11.10;99.90;;;;;;5041378;28;20228;-82
2023/04/04 12:38:26;;;;;;;10.40;10.10;;;9.70;99.90;;;;;;5041246;28;20248;-82
2023/04/04 12:40:54;;;;;;;10.57;10.27;;;8.60;99.90;;;;;;5041350;28;20220;-82
2023/04/04 12:43:21;;;;;;;10.20;9.90;;;8.40;99.90;;;;;;5041472;28;20298;-81
2023/04/04 12:45:52;;;;;;;10.20;9.90;;;9.00;99.90;;;;;;5041578;28;20267;-82
2023/04/04 12:48:22;;;;;;;10.20;9.90;;;9.60;99.90;;;;;;5041690;28;20284;-82
2023/04/04 12:50:59;;;;;;;10.40;10.10;;;9.50;99.90;;;;;;5040835;28;20232;-82
2023/04/04 12:53:29;;;;;;;10.40;10.10;;;9.40;99.90;;;;;;5037995;28;20230;-82
2023/04/04 12:56:01;;;;;;;10.70;10.40;;;9.60;99.90;;;;;;5041345;28;20303;-82
2023/04/04 12:58:29;;;;;;;10.73;10.43;;;9.90;99.90;;;;;;5037670;28;20236;-82
2023/04/04 13:01:01;;;;;;;10.50;10.20;;;10.10;99.90;;;;;;5033191;28;20259;-82
2023/04/04 13:03:29;;;;;;;11.17;10.87;;;10.00;99.90;;;;;;5040704;28;20230;-82
2023/04/04 13:06:03;;;;;;;10.87;10.57;;;9.80;99.90;;;;;;5040581;28;20244;-82
2023/04/04 13:08:32;;;;;;;11.00;10.70;;;10.20;99.90;;;;;;5038617;28;20228;-82
2023/04/04 13:11:05;;;;;;;10.77;10.47;;;11.00;99.90;;;;;;5040871;28;20224;-82
2023/04/04 13:13:37;;;;;;;10.70;10.40;;;11.50;99.90;;;;;;5039548;28;20244;-83
2023/04/04 13:16:08;;;;;;;10.83;10.53;;;11.60;99.90;;;;;;5030255;28;20271;-82
2023/04/04 13:18:42;;;;;;;10.63;10.33;;;11.10;99.90;;;;;;5031601;28;20236;-83
2023/04/04 13:21:13;;;;;;;10.60;10.30;;;9.80;99.90;;;;;;5033511;28;20242;-82
2023/04/04 13:23:42;;;;;;;10.40;10.10;;;8.60;99.90;;;;;;5029134;28;20250;-82
2023/04/04 13:26:11;;;;;;;10.40;10.10;;;8.60;99.90;;;;;;5033339;28;20276;-82
2023/04/04 13:28:41;;;;;;;10.10;9.80;;;8.90;99.90;;;;;;5039128;28;20236;-81
2023/04/04 13:31:10;;;;;;;10.17;9.87;;;9.00;99.90;;;;;;5032533;28;20291;-82
2023/04/04 13:33:39;;;;;;;10.10;9.80;;;9.60;99.90;;;;;;5032088;28;20224;-80
2023/04/04 13:36:07;;;;;;;10.10;9.80;;;9.70;99.90;;;;;;5030831;28;20229;-82
2023/04/04 13:38:48;;;;;;;10.60;10.30;;;9.70;99.90;;;;;;5030802;28;20335;-82
2023/04/04 13:41:15;;;;;;;10.43;10.13;;;9.60;99.90;;;;;;5029398;28;20271;-82
2023/04/04 13:43:45;;;;;;;10.50;10.20;;;9.50;99.90;;;;;;5030939;28;20284;-81
2023/04/04 13:46:14;;;;;;;10.10;9.80;;;9.90;99.90;;;;;;5029161;28;20232;-80
2023/04/04 13:48:43;;;;;;;10.30;10.00;;;10.40;99.90;;;;;;5028553;28;20243;-81
2023/04/04 13:51:13;;;;;;;10.20;9.90;;;11.00;99.90;;;;;;5029069;28;20270;-82
2023/04/04 13:53:45;;;;;;;10.17;9.87;;;11.60;99.90;;;;;;5028675;28;20228;-82
2023/04/04 13:56:12;;;;;;;10.30;10.00;;;11.90;99.90;;;;;;5028973;28;20275;-82
2023/04/04 13:58:42;;;;;;;10.40;10.10;;;12.20;99.90;;;;;;5028862;28;20283;-82
2023/04/04 14:01:11;;;;;;;10.67;10.37;;;12.20;99.90;;;;;;5028233;28;20247;-82
2023/04/04 14:03:41;;;;;;;10.60;10.30;;;12.40;99.90;;;;;;5028659;28;20239;-82
2023/04/04 14:06:11;;;;;;;10.33;10.03;;;12.80;99.90;;;;;;5020229;28;20299;-82
2023/04/04 14:08:41;;;;;;;10.43;10.13;;;13.00;99.90;;;;;;5026838;28;20248;-82
2023/04/04 14:11:14;;;;;;;10.40;10.10;;;12.60;99.90;;;;;;5024799;28;20331;-79
2023/04/04 14:13:42;;;;;;;10.00;9.70;;;12.30;99.90;;;;;;5013976;28;20256;-82
2023/04/04 14:16:10;;;;;;;10.20;9.90;;;11.40;99.90;;;;;;5021886;28;20275;-81
2023/04/04 14:18:38;;;;;;;10.20;9.90;;;10.10;99.90;;;;;;5027908;28;20263;-82
2023/04/04 14:21:08;;;;;;;10.30;10.00;;;9.60;99.90;;;;;;5027233;28;20263;-82
2023/04/04 14:23:37;;;;;;;10.37;10.07;;;9.10;99.90;;;;;;5029199;28;20388;-82
2023/04/04 14:26:06;;;;;;;10.20;9.90;;;8.70;99.90;;;;;;5026486;28;20228;-82
2023/04/04 14:28:37;;;;;;;10.30;10.00;;;8.30;99.90;;;;;;5026938;28;20323;-82
2023/04/04 14:31:05;;;;;;;10.27;9.97;;;8.30;99.90;;;;;;5022533;28;20324;-82
2023/04/04 14:33:37;;;;;;;9.97;9.67;;;8.50;99.90;;;;;;5026181;28;20239;-82
2023/04/04 14:36:05;;;;;;;10.30;10.00;;;8.70;99.90;;;;;;5021569;28;20227;-83
2023/04/04 14:38:34;;;;;;;10.30;10.00;;;9.10;99.90;;;;;;5026564;28;20236;-81
2023/04/04 14:41:02;;;;;;;9.90;9.60;;;9.90;99.90;;;;;;5026077;28;20247;-82
2023/04/04 14:43:30;;;;;;;10.23;9.93;;;10.80;99.90;;;;;;5026963;28;20238;-83
2023/04/04 14:46:02;;;;;;;9.93;9.63;;;11.30;99.90;;;;;;5027154;28;20232;-82
2023/04/04 14:48:32;;;;;;;10.13;9.83;;;11.60;99.90;;;;;;5026168;28;20243;-82
2023/04/04 14:51:00;;;;;;;10.30;10.00;;;12.30;99.90;;;;;;5026658;28;20239;-82
2023/04/04 14:53:30;;;;;;;9.93;9.63;;;12.60;99.90;;;;;;5026840;28;21129;-81
2023/04/04 14:56:00;;;;;;;9.90;9.60;;;12.90;99.90;;;;;;5026640;28;20224;-81
2023/04/04 14:58:28;;;;;;;10.13;9.83;;;11.90;99.90;;;;;;5025157;28;20239;-80
2023/04/04 15:00:55;;;;;;;10.00;9.70;;;11.00;99.90;;;;;;5027150;28;20229;-80
2023/04/04 15:03:28;;;;;;;9.97;9.67;;;10.30;99.90;;;;;;5026855;28;20240;-81
2023/04/04 15:05:57;;;;;;;9.83;9.53;;;9.60;99.90;;;;;;5026187;28;20292;-81
2023/04/04 15:08:27;;;;;;;10.20;9.90;;;9.00;99.90;;;;;;5027020;28;20319;-82
2023/04/04 15:10:56;;;;;;;10.07;9.77;;;8.60;99.90;;;;;;5032158;28;20292;-82
2023/04/04 15:13:26;;;;;;;10.00;9.70;;;8.60;99.90;;;;;;5023678;28;20328;-81
2023/04/04 15:15:55;;;;;;;10.20;9.90;;;8.50;99.90;;;;;;5026967;28;20236;-81
2023/04/04 15:18:27;;;;;;;9.90;9.60;;;8.40;99.90;;;;;;5027027;28;20248;-81
2023/04/04 15:20:57;;;;;;;9.90;9.60;;;8.20;99.90;;;;;;5027662;28;20263;-80
2023/04/04 15:23:24;;;;;;;9.83;9.53;;;8.40;99.90;;;;;;5026154;28;20228;-81
2023/04/04 15:25:53;;;;;;;9.83;9.53;;;8.30;99.90;;;;;;5017107;28;20319;-81
2023/04/04 15:28:22;;;;;;;9.80;9.50;;;8.30;99.90;;;;;;5022406;28;20232;-81
2023/04/04 15:30:52;;;;;;;9.97;9.67;;;8.10;99.90;;;;;;5026422;28;20263;-80
2023/04/04 15:33:21;;;;;;;9.93;9.63;;;8.10;99.90;;;;;;5027989;28;20236;-83
2023/04/04 15:35:52;;;;;;;10.00;9.70;;;8.10;99.90;;;;;;5027713;28;20244;-81
2023/04/04 15:38:20;;;;;;;10.13;9.83;;;7.90;99.90;;;;;;5027180;28;20274;-80
2023/04/04 15:40:49;;;;;;;10.30;10.00;;;8.00;99.90;;;;;;5028783;28;20236;-83
2023/04/04 15:43:19;;;;;;;10.10;9.80;;;8.20;99.90;;;;;;5027298;28;20263;-83
2023/04/04 15:45:49;;;;;;;10.07;9.77;;;8.10;99.90;;;;;;5020415;28;20232;-80
2023/04/04 15:48:17;;;;;;;9.73;9.43;;;8.10;99.90;;;;;;5022773;28;20292;-81
2023/04/04 15:50:47;;;;;;;9.50;9.20;;;8.00;99.90;;;;;;5023611;28;20325;-85
2023/04/04 15:53:19;;;;;;;9.53;9.23;;;8.20;99.90;;;;;;5024412;28;20232;-83
2023/04/04 15:55:48;;;;;;;9.10;8.90;;;8.40;99.90;;;;;;5023808;28;20263;-82
2023/04/04 15:58:16;;;;;;;9.67;9.37;;;8.10;99.90;;;;;;5027224;28;20279;-83
2023/04/04 16:00:47;;;;;;;9.60;9.30;;;8.00;99.90;;;;;;5031031;28;20239;-82
2023/04/04 16:03:17;;;;;;;9.80;9.50;;;8.10;99.90;;;;;;5031675;28;20244;-82
2023/04/04 16:05:45;;;;;;;9.83;9.53;;;8.10;99.90;;;;;;5029105;28;20230;-82
2023/04/04 16:08:17;;;;;;;9.83;9.53;;;7.90;99.90;;;;;;5029684;28;20228;-81
2023/04/04 16:10:44;;;;;;;9.90;9.60;;;7.50;99.90;;;;;;5031924;28;20252;-81